Accueil
METAR-TAF:

METAR-TAF

Aéroports :

Anchorage, Alaska, États-Unis

latitude: 61-13N, longitude: 149-51W, altitude: 42 m

Observation

Le bulletin a été fait il y a 1 heure et 5 minutes, à 22:53 UTC
Vent 5 kt de nord/nord-ouest
Température -9°C
Humidité 79%
Pression 1006 hPa
Visibilité: 6.4 km
Nuages épars à une hauteur de 900 ft
Ciel couvert à une hauteur de 1400 ft
neige faible

METAR: PAMR 222253Z 33005KT 4SM -SN SCT009 OVC014 M09/M12 A2971 RMK AO2 SLP062 P0000 T10891117

Heure: 14:58 (23:58 UTC)


TAF: absent

Observations et prévisions météorologiques de plus de 4000 aéroports (messages METAR et TAF).

Les stations disponibles sont représentées par des disques jaunes et rouges sur la carte.

Passer la souris dessus pour voir le nom de la station.

Cliquer dessus pour voir les observations et prévisions météorologiques.

Pour changer de carte: cliquez sur les boutons verts avec une croix noire pour zoomer, sur le bouton vert avec un tiret pour effectuer un zoom arrière, ou sur les flèches vertes pour les cartes adjacentes.


METAR-TAF: